Time;durP1;ratioP1;P1;durP2;ratioP2;P2;SDS_P1;SDS_P2;PMS_P1;PMS_P2;Temp;Humidity;BMP_temperature;BMP_pressure;BME280_temperature;BME280_humidity;BME280_pressure;Samples;Min_cycle;Max_cycle;Signal;HPM_P1;HPM_P2
2022/08/22 00:00:14;;;;;;;8.55;3.50;;;17.60;1.00;;;;;;5028926;28;20402;-58
2022/08/22 00:02:52;;;;;;;9.57;3.78;;;17.50;33.30;;;;;;5023313;28;20403;-58
2022/08/22 00:05:42;;;;;;;10.23;3.80;;;17.50;99.90;;;;;;5028057;28;20395;-58
2022/08/22 00:08:14;;;;;;;8.82;4.40;;;17.60;1.00;;;;;;5028491;28;20758;-58
2022/08/22 00:11:04;;;;;;;9.57;3.70;;;17.60;1.00;;;;;;5030560;28;20480;-58
2022/08/22 00:13:41;;;;;;;9.80;4.25;;;17.80;1.00;;;;;;5028331;28;20480;-58
2022/08/22 00:16:19;;;;;;;9.10;4.10;;;17.90;1.00;;;;;;5028446;28;20387;-58
2022/08/22 00:19:06;;;;;;;9.73;3.90;;;18.00;1.00;;;;;;5028340;28;20391;-58
2022/08/22 00:21:48;;;;;;;10.13;3.95;;;18.00;1.00;;;;;;5017278;28;20403;-58
2022/08/22 00:24:52;;;;;;;9.23;3.97;;;18.00;1.00;;;;;;5026217;28;20406;-58
2022/08/22 00:27:22;;;;;;;10.13;3.90;;;18.00;1.00;;;;;;5026949;28;20414;-58
2022/08/22 00:29:53;;;;;;;12.55;4.45;;;17.80;1.00;;;;;;5028615;28;20407;-58
2022/08/22 00:32:25;;;;;;;8.00;3.55;;;17.70;1.00;;;;;;5027202;28;20788;-58
2022/08/22 00:34:57;;;;;;;14.50;4.25;;;17.60;1.00;;;;;;5027669;28;20461;-57
2022/08/22 00:37:33;;;;;;;9.15;3.60;;;17.50;1.00;;;;;;5024695;28;20540;-58
2022/08/22 00:40:30;;;;;;;11.20;4.20;;;17.60;1.00;;;;;;5029554;28;20418;-58
2022/08/22 00:43:14;;;;;;;8.30;3.85;;;17.70;1.00;;;;;;5029673;28;20490;-58
2022/08/22 00:45:58;;;;;;;10.32;3.78;;;17.70;1.00;;;;;;5029359;28;20391;-58
2022/08/22 00:48:40;;;;;;;8.50;3.80;;;17.70;1.00;;;;;;5024693;28;20414;-59
2022/08/22 00:51:19;;;;;;;10.57;4.07;;;17.70;1.00;;;;;;5027259;28;21159;-58
2022/08/22 00:54:00;;;;;;;8.93;3.80;;;17.60;1.00;;;;;;5029399;28;20682;-58
2022/08/22 00:56:49;;;;;;;8.67;3.70;;;17.60;1.00;;;;;;5026836;28;20727;-58
2022/08/22 00:59:23;;;;;;;11.20;4.05;;;17.60;1.00;;;;;;5023948;28;20407;-59
2022/08/22 01:02:27;;;;;;;8.87;3.90;;;17.60;1.00;;;;;;5026208;28;20525;-58
2022/08/22 01:05:08;;;;;;;9.20;4.30;;;17.50;1.00;;;;;;5025865;28;20422;-58
2022/08/22 01:07:57;;;;;;;11.43;4.20;;;17.40;1.00;;;;;;5029161;28;20391;-58
2022/08/22 01:10:48;;;;;;;12.35;4.30;;;17.50;1.00;;;;;;5028882;28;20423;-58
2022/08/22 01:13:28;;;;;;;11.88;4.18;;;17.40;1.00;;;;;;5028336;28;20764;-58
2022/08/22 01:16:19;;;;;;;8.93;3.80;;;17.30;99.30;;;;;;5029126;28;20855;-58
2022/08/22 01:19:18;;;;;;;10.38;4.28;;;17.20;99.90;;;;;;5027438;28;20473;-58
2022/08/22 01:22:03;;;;;;;11.23;4.30;;;17.00;1.00;;;;;;5027758;28;20391;-58
2022/08/22 01:25:18;;;;;;;9.90;4.13;;;16.90;1.00;;;;;;5028324;28;20484;-58
2022/08/22 01:27:43;;;;;;;10.63;4.07;;;16.70;1.00;;;;;;5029590;28;20468;-58
2022/08/22 01:30:48;;;;;;;10.57;4.70;;;16.60;1.00;;;;;;5029380;28;20846;-58
2022/08/22 01:33:23;;;;;;;9.40;4.00;;;16.70;1.00;;;;;;5013409;28;20407;-59
2022/08/22 01:36:06;;;;;;;9.63;4.05;;;16.60;1.00;;;;;;5029629;28;20386;-57
2022/08/22 01:38:54;;;;;;;10.40;4.35;;;16.50;99.90;;;;;;5027612;28;20900;-58
2022/08/22 01:41:25;;;;;;;11.10;4.35;;;16.50;1.00;;;;;;5028621;28;20462;-57
2022/08/22 01:44:19;;;;;;;9.85;4.10;;;16.40;1.00;;;;;;5029297;28;20395;-57
2022/08/22 01:47:04;;;;;;;13.25;4.35;;;16.40;1.00;;;;;;5029442;28;20536;-57
2022/08/22 01:49:32;;;;;;;11.50;5.30;;;16.30;1.00;;;;;;5017526;28;20408;-57
2022/08/22 01:51:58;;;;;;;13.07;4.70;;;16.20;1.00;;;;;;5029466;28;20517;-58
2022/08/22 01:54:57;;;;;;;9.80;4.73;;;16.10;99.90;;;;;;5028497;28;20490;-58
2022/08/22 01:57:25;;;;;;;9.63;4.63;;;16.20;1.00;;;;;;5028320;28;20411;-58
2022/08/22 02:00:00;;;;;;;11.95;4.70;;;16.10;99.90;;;;;;5029428;28;20396;-58
2022/08/22 02:02:35;;;;;;;10.18;4.80;;;16.10;99.90;;;;;;5028145;28;20502;-58
2022/08/22 02:05:05;;;;;;;11.07;4.70;;;16.10;99.90;;;;;;5027704;28;20423;-57
2022/08/22 02:07:47;;;;;;;10.85;4.72;;;16.20;64.00;;;;;;5028365;28;20399;-58
2022/08/22 02:10:39;;;;;;;9.75;4.60;;;16.20;99.90;;;;;;5026739;28;20440;-57
2022/08/22 02:13:18;;;;;;;11.00;4.70;;;16.20;1.00;;;;;;5017971;28;20426;-57
2022/08/22 02:15:52;;;;;;;9.00;4.10;;;15.90;24.00;;;;;;5029034;28;20383;-58
2022/08/22 02:18:31;;;;;;;10.40;4.75;;;15.70;99.90;;;;;;5028249;28;20406;-58
2022/08/22 02:21:12;;;;;;;10.82;4.50;;;15.70;99.90;;;;;;5028343;28;20410;-58
2022/08/22 02:23:57;;;;;;;13.27;5.90;;;15.90;1.00;;;;;;5027576;28;20392;-57
2022/08/22 02:26:26;;;;;;;11.98;5.38;;;15.90;99.90;;;;;;5027325;28;20959;-57
2022/08/22 02:29:34;;;;;;;10.55;5.25;;;15.90;99.90;;;;;;5026894;28;20884;-58
2022/08/22 02:32:09;;;;;;;10.70;4.93;;;15.90;1.00;;;;;;4986345;28;20418;-58
2022/08/22 02:34:52;;;;;;;11.05;5.15;;;15.80;1.00;;;;;;4966275;28;20415;-58
2022/08/22 02:37:35;;;;;;;11.85;5.75;;;15.80;99.90;;;;;;4994853;28;20428;-60
2022/08/22 02:40:29;;;;;;;10.57;5.70;;;15.80;99.90;;;;;;5028309;28;20774;-58
2022/08/22 02:43:07;;;;;;;14.13;6.78;;;15.90;1.00;;;;;;5028380;28;20445;-58
2022/08/22 02:45:57;;;;;;;14.50;6.30;;;15.90;99.90;;;;;;5027728;28;20413;-58
2022/08/22 02:48:43;;;;;;;11.38;6.53;;;15.90;99.90;;;;;;5027087;28;20470;-57
2022/08/22 02:51:23;;;;;;;12.48;5.88;;;15.90;99.90;;;;;;5027691;28;20422;-58
2022/08/22 02:54:07;;;;;;;11.73;5.97;;;15.90;99.90;;;;;;5027727;28;20890;-58
2022/08/22 02:57:27;;;;;;;13.07;6.43;;;15.80;99.90;;;;;;5027289;28;20395;-58
2022/08/22 03:00:16;;;;;;;11.40;5.50;;;15.80;99.90;;;;;;4967120;28;20451;-58
2022/08/22 03:03:03;;;;;;;12.13;5.30;;;15.70;99.90;;;;;;5010441;28;20399;-59
2022/08/22 03:05:40;;;;;;;11.35;5.40;;;15.60;99.90;;;;;;5027436;28;20443;-58
2022/08/22 03:08:06;;;;;;;12.07;6.00;;;15.50;1.00;;;;;;5027843;28;20403;-59
2022/08/22 03:10:57;;;;;;;11.90;6.33;;;15.40;1.00;;;;;;5026711;28;20437;-57
2022/08/22 03:13:46;;;;;;;15.90;6.93;;;15.50;1.00;;;;;;5021175;28;20411;-58
2022/08/22 03:16:20;;;;;;;12.00;6.65;;;15.60;1.00;;;;;;5018272;28;20874;-58
2022/08/22 03:18:48;;;;;;;13.15;6.40;;;15.70;1.00;;;;;;5027774;28;20395;-58
2022/08/22 03:21:44;;;;;;;11.85;6.30;;;15.70;1.00;;;;;;5027603;28;20455;-62
2022/08/22 03:24:22;;;;;;;11.60;6.35;;;15.70;1.00;;;;;;5027997;28;20438;-58
2022/08/22 03:27:22;;;;;;;12.85;6.45;;;15.60;1.00;;;;;;5027792;28;20868;-58
2022/08/22 03:30:06;;;;;;;12.35;6.30;;;15.60;1.00;;;;;;5008246;28;20396;-56
2022/08/22 03:33:20;;;;;;;12.37;6.40;;;15.40;1.00;;;;;;5025410;28;20411;-55
2022/08/22 03:35:46;;;;;;;13.13;6.45;;;15.40;1.00;;;;;;5024789;28;20387;-53
2022/08/22 03:38:37;;;;;;;14.73;6.30;;;15.50;1.00;;;;;;5027143;28;20406;-55
2022/08/22 03:41:24;;;;;;;10.55;6.20;;;15.50;1.00;;;;;;5026400;28;20407;-55
2022/08/22 03:44:13;;;;;;;12.03;6.70;;;15.50;1.00;;;;;;5024473;28;20696;-54
2022/08/22 03:47:02;;;;;;;12.48;6.45;;;15.50;1.00;;;;;;5025152;28;20419;-57
2022/08/22 03:49:53;;;;;;;13.35;6.72;;;15.60;1.00;;;;;;5009427;28;20418;-55
2022/08/22 03:53:06;;;;;;;12.03;6.33;;;15.50;1.00;;;;;;5025760;28;20425;-58
2022/08/22 03:56:13;;;;;;;12.02;6.03;;;15.50;1.00;;;;;;4994737;28;20410;-57
2022/08/22 03:59:05;;;;;;;12.37;6.17;;;15.30;1.00;;;;;;5025838;28;20829;-57
2022/08/22 04:01:55;;;;;;;12.95;6.10;;;15.20;1.00;;;;;;4998429;28;20514;-57
2022/08/22 04:04:39;;;;;;;12.82;6.10;;;15.00;1.00;;;;;;5029356;28;20494;-58
2022/08/22 04:07:11;;;;;;;12.30;6.38;;;15.10;1.00;;;;;;5027731;28;20880;-57
2022/08/22 04:10:02;;;;;;;13.00;6.05;;;15.00;1.00;;;;;;5030085;28;20387;-58
2022/08/22 04:12:47;;;;;;;12.87;6.27;;;15.00;1.00;;;;;;5027146;28;20435;-58
2022/08/22 04:15:18;;;;;;;12.60;7.15;;;14.90;1.00;;;;;;5029217;28;20470;-58
2022/08/22 04:18:25;;;;;;;12.80;6.93;;;14.90;1.00;;;;;;5030153;28;20391;-58
2022/08/22 04:21:15;;;;;;;14.18;6.60;;;14.90;1.00;;;;;;4956987;28;20417;-58
2022/08/22 04:23:59;;;;;;;15.77;7.32;;;15.00;1.00;;;;;;4990194;28;20482;-57
2022/08/22 04:26:50;;;;;;;13.07;6.88;;;15.00;1.00;;;;;;5022088;28;20585;-58
2022/08/22 04:29:36;;;;;;;12.63;6.40;;;14.90;1.00;;;;;;5029225;28;20474;-58
2022/08/22 04:32:13;;;;;;;13.88;6.78;;;14.90;1.00;;;;;;5028804;28;20438;-57
2022/08/22 04:35:09;;;;;;;14.05;7.03;;;14.80;1.00;;;;;;5029455;28;20387;-57
2022/08/22 04:37:55;;;;;;;13.57;7.15;;;14.80;1.00;;;;;;5029966;28;20392;-56
2022/08/22 04:40:30;;;;;;;12.88;6.70;;;14.80;1.00;;;;;;5027135;28;20811;-55
2022/08/22 04:43:07;;;;;;;12.15;6.30;;;14.90;1.00;;;;;;5027249;28;20462;-57
2022/08/22 04:45:45;;;;;;;11.27;6.00;;;15.00;1.00;;;;;;5029054;28;20458;-57
2022/08/22 04:48:37;;;;;;;12.27;6.47;;;15.10;1.00;;;;;;5029661;28;21020;-57
2022/08/22 04:51:34;;;;;;;15.43;6.72;;;15.20;1.00;;;;;;5030066;28;20442;-56
2022/08/22 04:54:12;;;;;;;13.18;6.63;;;15.40;1.00;;;;;;5030500;28;20882;-57
2022/08/22 04:57:01;;;;;;;13.85;6.55;;;15.40;1.00;;;;;;5028971;28;20489;-60
2022/08/22 04:59:29;;;;;;;12.43;6.68;;;15.60;1.00;;;;;;5028297;28;20724;-57
2022/08/22 05:02:05;;;;;;;13.48;6.80;;;15.80;1.00;;;;;;5029642;28;20399;-57
2022/08/22 05:04:32;;;;;;;13.38;6.57;;;16.00;1.00;;;;;;5028528;28;20371;-57
2022/08/22 05:07:10;;;;;;;13.60;6.50;;;16.10;1.00;;;;;;5028187;28;20414;-57
2022/08/22 05:09:42;;;;;;;14.55;6.50;;;16.10;1.00;;;;;;5029405;28;20409;-57
2022/08/22 05:12:13;;;;;;;16.10;7.38;;;16.10;1.00;;;;;;5028823;28;20549;-57
2022/08/22 05:14:48;;;;;;;18.13;6.75;;;16.20;1.00;;;;;;5028330;28;20387;-57
2022/08/22 05:17:21;;;;;;;13.00;6.60;;;16.20;1.00;;;;;;5029492;28;20476;-57
2022/08/22 05:19:51;;;;;;;12.18;6.63;;;16.20;1.00;;;;;;5029676;28;20868;-57
2022/08/22 05:22:25;;;;;;;13.30;6.90;;;16.10;1.00;;;;;;5029573;28;20554;-58
2022/08/22 05:24:57;;;;;;;13.68;6.72;;;16.10;1.00;;;;;;5029443;28;20509;-53
2022/08/22 05:27:30;;;;;;;14.93;7.20;;;16.10;1.00;;;;;;5028624;28;20505;-59
2022/08/22 05:30:08;;;;;;;13.30;6.22;;;16.20;1.00;;;;;;5029418;28;20400;-59
2022/08/22 05:33:05;;;;;;;14.98;6.72;;;16.30;1.00;;;;;;5028728;28;20490;-58
2022/08/22 05:35:37;;;;;;;12.68;6.85;;;16.50;1.00;;;;;;5028330;28;20402;-58
2022/08/22 05:38:06;;;;;;;16.92;6.38;;;16.90;1.00;;;;;;5029577;28;20768;-58
2022/08/22 05:40:36;;;;;;;14.40;6.28;;;17.10;99.90;;;;;;5027053;28;20760;-58
2022/08/22 05:43:03;;;;;;;13.20;6.50;;;17.30;99.90;;;;;;5029397;28;20406;-57
2022/08/22 05:45:32;;;;;;;14.02;6.60;;;17.50;99.90;;;;;;5028471;28;20456;-58
2022/08/22 05:48:10;;;;;;;11.57;6.40;;;17.50;99.90;;;;;;5029820;28;20379;-58
2022/08/22 05:50:52;;;;;;;13.82;6.90;;;17.60;99.90;;;;;;5009007;28;20417;-58
2022/08/22 05:53:34;;;;;;;11.83;6.00;;;17.90;99.90;;;;;;5011104;28;20380;-59
2022/08/22 05:56:06;;;;;;;15.35;6.47;;;18.90;99.90;;;;;;5029342;28;20446;-58
2022/08/22 05:58:37;;;;;;;12.88;5.63;;;20.40;1.00;;;;;;5028375;28;20486;-57
2022/08/22 06:01:25;;;;;;;11.35;6.20;;;21.40;99.90;;;;;;5028864;28;20499;-57
2022/08/22 06:04:14;;;;;;;12.27;5.70;;;22.20;1.00;;;;;;5026612;28;20418;-58
2022/08/22 06:07:03;;;;;;;13.18;6.20;;;23.30;1.00;;;;;;5025136;28;20406;-58
2022/08/22 06:09:51;;;;;;;13.23;5.83;;;24.30;99.90;;;;;;5027107;28;20400;-57
2022/08/22 06:12:57;;;;;;;11.88;5.85;;;25.10;99.90;;;;;;5027992;28;20449;-58
2022/08/22 06:15:27;;;;;;;9.80;4.90;;;25.20;99.90;;;;;;4985977;28;20434;-59
2022/08/22 06:17:58;;;;;;;12.38;5.95;;;25.00;99.90;;;;;;5022482;28;20429;-58
2022/08/22 06:20:38;;;;;;;10.45;5.70;;;25.60;99.90;;;;;;5027969;28;20417;-58
2022/08/22 06:23:07;;;;;;;14.20;5.60;;;26.20;99.90;;;;;;5028304;28;20389;-58
2022/08/22 06:25:36;;;;;;;9.50;5.05;;;26.20;99.90;;;;;;5027393;28;20569;-58
2022/08/22 06:28:10;;;;;;;12.90;6.40;;;26.10;99.90;;;;;;5027753;28;20464;-58
2022/08/22 06:30:38;;;;;;;11.23;5.25;;;26.70;99.90;;;;;;5027017;28;20526;-58
2022/08/22 06:33:11;;;;;;;12.63;4.90;;;27.50;99.90;;;;;;5028185;28;20748;-59
2022/08/22 06:38:33;;;;;;;11.17;5.70;;;28.60;99.90;;;;;;5027584;28;20743;-59
2022/08/22 06:41:06;;;;;;;10.70;5.70;;;29.00;99.90;;;;;;5027588;28;20890;-59
2022/08/22 06:43:38;;;;;;;11.00;5.70;;;28.60;99.90;;;;;;5027296;28;20399;-59
2022/08/22 06:46:05;;;;;;;10.00;5.00;;;28.60;99.90;;;;;;5027592;28;20402;-59
2022/08/22 06:48:32;;;;;;;9.70;5.90;;;29.50;99.90;;;;;;5027264;28;20379;-59
2022/08/22 06:50:59;;;;;;;10.02;6.43;;;30.00;99.90;;;;;;5027737;28;20414;-59
2022/08/22 06:53:33;;;;;;;10.00;6.10;;;30.00;99.90;;;;;;5027485;28;20387;-59
2022/08/22 06:56:07;;;;;;;10.45;6.03;;;30.20;99.90;;;;;;5027387;28;20875;-59
2022/08/22 06:58:46;;;;;;;9.63;6.05;;;29.60;99.90;;;;;;5027383;28;20387;-59
2022/08/22 07:01:15;;;;;;;10.70;6.30;;;29.20;99.90;;;;;;5028598;28;20391;-59
2022/08/22 07:03:49;;;;;;;12.00;6.70;;;29.70;99.90;;;;;;5027211;28;20388;-59
2022/08/22 07:06:28;;;;;;;11.30;7.20;;;30.70;99.90;;;;;;5027935;28;20871;-59
2022/08/22 07:08:54;;;;;;;11.68;7.97;;;31.40;99.90;;;;;;5008578;28;20439;-59
2022/08/22 07:11:33;;;;;;;11.95;7.13;;;31.90;99.90;;;;;;5011255;28;20433;-61
2022/08/22 07:14:13;;;;;;;10.90;6.93;;;32.30;99.90;;;;;;5027776;28;20874;-60
2022/08/22 07:16:50;;;;;;;11.85;7.90;;;32.50;99.90;;;;;;5027070;28;20396;-59
2022/08/22 07:19:28;;;;;;;13.15;7.57;;;31.90;99.90;;;;;;5026762;28;21046;-59
2022/08/22 07:21:56;;;;;;;12.55;8.30;;;32.70;99.90;;;;;;5027759;28;20481;-59
2022/08/22 07:24:30;;;;;;;11.07;7.60;;;32.80;99.90;;;;;;5027404;28;20395;-61
2022/08/22 07:27:07;;;;;;;15.13;7.15;;;32.90;99.90;;;;;;5027420;28;20468;-60
2022/08/22 07:29:58;;;;;;;11.27;8.30;;;33.20;99.90;;;;;;5027504;28;20396;-59
2022/08/22 07:32:24;;;;;;;11.20;8.10;;;33.30;99.90;;;;;;5026754;28;20406;-61
2022/08/22 07:35:14;;;;;;;13.00;8.47;;;33.40;99.90;;;;;;5027277;28;20402;-59
2022/08/22 07:38:06;;;;;;;13.68;8.80;;;33.50;99.90;;;;;;5011077;28;20472;-59
2022/08/22 07:41:19;;;;;;;12.25;8.05;;;33.40;99.90;;;;;;5011251;28;20431;-59
2022/08/22 07:43:50;;;;;;;11.98;7.97;;;33.70;99.90;;;;;;4969361;28;20400;-59
2022/08/22 07:46:34;;;;;;;15.68;7.30;;;33.50;99.90;;;;;;5007842;28;20396;-59
2022/08/22 07:49:12;;;;;;;10.02;6.90;;;33.70;99.90;;;;;;5011655;28;20491;-59
2022/08/22 07:51:51;;;;;;;9.40;6.87;;;33.30;99.90;;;;;;5010657;28;20408;-60
2022/08/22 07:54:56;;;;;;;10.10;6.70;;;33.80;99.90;;;;;;5011750;28;20380;-59
2022/08/22 07:57:29;;;;;;;9.82;6.43;;;33.00;99.90;;;;;;5010216;28;20412;-60
2022/08/22 07:59:58;;;;;;;9.93;6.40;;;32.60;99.90;;;;;;5011680;28;20871;-59
2022/08/22 08:02:25;;;;;;;11.17;6.00;;;33.10;99.90;;;;;;5010797;28;20404;-61
2022/08/22 08:04:53;;;;;;;9.25;6.45;;;33.50;99.90;;;;;;5011387;28;20700;-59
2022/08/22 08:07:24;;;;;;;13.52;6.95;;;33.50;99.90;;;;;;5011184;28;20933;-59
2022/08/22 08:09:54;;;;;;;12.95;7.35;;;34.00;99.90;;;;;;5010336;28;20436;-60
2022/08/22 08:12:46;;;;;;;9.55;6.93;;;34.60;99.90;;;;;;5020877;28;20873;-59
2022/08/22 08:15:16;;;;;;;9.57;6.78;;;35.60;99.90;;;;;;5031083;28;20387;-59
2022/08/22 08:17:44;;;;;;;11.30;7.25;;;35.60;99.90;;;;;;5030435;28;20482;-60
2022/08/22 08:20:13;;;;;;;8.95;6.60;;;36.30;99.90;;;;;;5023473;28;20458;-60
2022/08/22 08:22:42;;;;;;;10.50;7.50;;;36.00;99.90;;;;;;5018563;28;20908;-60
2022/08/22 08:25:14;;;;;;;10.10;7.23;;;36.70;99.90;;;;;;5010897;28;20396;-59
2022/08/22 08:31:00;;;;;;;9.75;7.85;;;36.90;99.90;;;;;;5029670;28;20394;-61
2022/08/22 08:33:30;;;;;;;9.40;5.00;;;36.70;99.90;;;;;;5022767;28;20395;-61
2022/08/22 08:36:04;;;;;;;10.90;7.72;;;36.70;99.90;;;;;;5020411;28;20387;-60
2022/08/22 08:38:39;;;;;;;10.25;7.65;;;36.30;99.90;;;;;;5016906;28;20828;-60
2022/08/22 08:41:32;;;;;;;11.40;7.27;;;36.00;99.90;;;;;;5030365;28;20437;-60
2022/08/22 08:44:30;;;;;;;9.50;7.40;;;35.80;99.90;;;;;;5029560;28;20403;-60
2022/08/22 08:47:26;;;;;;;10.38;7.50;;;35.60;99.90;;;;;;5010807;28;20392;-60
2022/08/22 08:50:28;;;;;;;8.95;6.22;;;36.40;99.90;;;;;;5010784;28;20855;-60
2022/08/22 08:53:30;;;;;;;11.10;7.60;;;36.70;99.90;;;;;;5011024;28;20479;-60
2022/08/22 08:56:11;;;;;;;9.95;6.32;;;36.70;99.90;;;;;;5010514;28;20400;-60
2022/08/22 08:59:01;;;;;;;10.20;6.63;;;36.60;99.90;;;;;;5018269;28;20423;-60
2022/08/22 09:02:24;;;;;;;11.52;7.68;;;36.30;99.90;;;;;;5029675;28;20394;-61
2022/08/22 09:05:14;;;;;;;10.20;7.03;;;36.40;99.90;;;;;;5007529;28;20396;-60
2022/08/22 09:08:18;;;;;;;10.80;7.15;;;36.90;99.90;;;;;;5006887;28;20401;-60
2022/08/22 09:11:19;;;;;;;11.23;7.72;;;36.70;99.90;;;;;;5026485;28;21020;-61
2022/08/22 09:13:59;;;;;;;8.75;6.90;;;36.60;99.90;;;;;;5029252;28;20402;-60
2022/08/22 09:17:03;;;;;;;8.93;6.85;;;36.70;99.90;;;;;;5029650;28;20387;-61
2022/08/22 09:20:00;;;;;;;10.75;7.28;;;37.60;99.90;;;;;;5029241;28;20387;-61
2022/08/22 09:22:28;;;;;;;9.65;7.05;;;37.70;99.90;;;;;;5028833;28;20787;-60
2022/08/22 09:25:00;;;;;;;10.10;7.20;;;37.70;99.90;;;;;;5029481;28;20394;-60
2022/08/22 09:27:42;;;;;;;9.20;7.20;;;38.00;99.90;;;;;;5028805;28;20399;-60
2022/08/22 09:30:11;;;;;;;9.55;7.13;;;37.30;99.90;;;;;;5029947;28;20399;-61
2022/08/22 09:33:04;;;;;;;10.13;6.85;;;36.70;99.90;;;;;;5029006;28;20889;-61
2022/08/22 09:35:38;;;;;;;8.80;7.10;;;36.90;99.90;;;;;;5028700;28;20402;-61
2022/08/22 09:38:17;;;;;;;10.23;7.20;;;37.10;99.90;;;;;;5029434;28;20423;-61
2022/08/22 09:40:46;;;;;;;9.73;7.50;;;37.40;99.90;;;;;;5028412;28;20504;-61
2022/08/22 09:43:22;;;;;;;10.40;6.60;;;37.20;99.90;;;;;;5029752;28;20423;-61
2022/08/22 09:46:14;;;;;;;9.63;7.15;;;37.20;99.90;;;;;;5028094;28;20457;-61
2022/08/22 09:49:01;;;;;;;11.43;7.75;;;36.90;99.90;;;;;;5028550;28;20375;-61
2022/08/22 09:52:04;;;;;;;9.00;6.90;;;37.00;99.90;;;;;;5028053;28;20411;-61
2022/08/22 09:54:36;;;;;;;9.27;7.38;;;37.50;99.90;;;;;;5009951;28;20395;-61
2022/08/22 09:57:13;;;;;;;10.10;7.68;;;37.30;99.90;;;;;;5027588;28;20399;-61
2022/08/22 10:00:10;;;;;;;10.82;7.30;;;37.90;99.90;;;;;;5024334;28;20835;-61
2022/08/22 10:03:05;;;;;;;13.68;7.65;;;38.60;99.90;;;;;;5027736;28;20573;-61
2022/08/22 10:06:09;;;;;;;11.45;7.60;;;38.40;99.90;;;;;;5021658;28;20396;-60
2022/08/22 10:08:44;;;;;;;11.55;7.93;;;38.80;99.90;;;;;;5028319;28;20839;-59
2022/08/22 10:11:33;;;;;;;8.20;7.20;;;38.90;99.90;;;;;;5028912;28;20849;-60
2022/08/22 10:14:19;;;;;;;10.17;7.67;;;39.20;99.90;;;;;;5028586;28;20883;-60
2022/08/22 10:17:08;;;;;;;9.50;7.28;;;38.00;99.90;;;;;;5026799;28;20450;-60
2022/08/22 10:20:21;;;;;;;9.32;7.15;;;37.80;99.90;;;;;;5025352;28;20399;-60
2022/08/22 10:23:05;;;;;;;8.80;7.00;;;37.10;99.90;;;;;;5008198;28;20399;-59
2022/08/22 10:25:43;;;;;;;8.52;7.05;;;37.60;99.90;;;;;;5025366;28;20450;-60
2022/08/22 10:28:23;;;;;;;9.77;6.90;;;37.60;99.90;;;;;;5028440;28;20779;-60
2022/08/22 10:31:27;;;;;;;8.73;6.65;;;37.70;99.90;;;;;;5028418;28;20406;-60
2022/08/22 10:34:03;;;;;;;7.72;5.30;;;37.40;99.90;;;;;;5027938;28;20383;-60
2022/08/22 10:37:21;;;;;;;10.90;6.65;;;37.10;99.90;;;;;;5027388;28;20378;-60
2022/08/22 10:40:13;;;;;;;9.88;7.50;;;37.00;99.90;;;;;;5010618;28;20391;-60
2022/08/22 10:42:56;;;;;;;10.40;8.00;;;36.30;99.90;;;;;;5027608;28;20387;-60
2022/08/22 10:45:44;;;;;;;8.23;4.53;;;35.20;99.90;;;;;;5028273;28;20764;-60
2022/08/22 10:48:09;;;;;;;11.82;6.45;;;34.30;99.90;;;;;;5027948;28;20852;-60
2022/08/22 10:50:38;;;;;;;10.25;6.57;;;33.80;99.90;;;;;;5027514;28;20530;-60
2022/08/22 10:53:34;;;;;;;9.77;7.68;;;33.40;99.90;;;;;;5028494;28;20497;-59
2022/08/22 10:56:02;;;;;;;8.60;3.93;;;32.80;99.90;;;;;;5020097;28;20448;-60
2022/08/22 10:58:35;;;;;;;8.57;3.90;;;32.60;99.90;;;;;;5027309;28;20387;-59
2022/08/22 11:01:03;;;;;;;11.65;3.97;;;32.60;99.90;;;;;;5028092;28;20458;-59
2022/08/22 11:03:39;;;;;;;9.60;4.10;;;32.60;99.90;;;;;;5027342;28;20441;-59
2022/08/22 11:06:16;;;;;;;9.30;3.70;;;32.20;99.90;;;;;;5025982;28;20733;-59
2022/08/22 11:09:19;;;;;;;10.00;4.25;;;32.10;99.90;;;;;;5025428;28;20456;-59
2022/08/22 11:11:54;;;;;;;9.35;4.20;;;32.30;99.90;;;;;;5025139;28;20481;-58
2022/08/22 11:14:38;;;;;;;7.80;4.10;;;32.40;99.90;;;;;;5026334;28;20792;-58
2022/08/22 11:17:13;;;;;;;8.90;4.50;;;32.40;99.90;;;;;;5026624;28;20470;-59
2022/08/22 11:20:10;;;;;;;8.23;3.38;;;32.30;99.90;;;;;;5039366;28;20819;-58
2022/08/22 11:22:41;;;;;;;8.23;4.05;;;32.60;99.90;;;;;;5024649;28;20437;-60
2022/08/22 11:25:15;;;;;;;9.43;4.18;;;32.40;99.90;;;;;;5027102;28;20383;-59
2022/08/22 11:27:43;;;;;;;8.20;3.30;;;32.30;99.90;;;;;;5026664;28;20391;-60
2022/08/22 11:30:13;;;;;;;7.38;3.65;;;32.20;99.90;;;;;;5027503;28;20470;-60
2022/08/22 11:33:00;;;;;;;8.00;3.77;;;31.80;99.90;;;;;;5026784;28;20418;-59
2022/08/22 11:35:43;;;;;;;8.00;3.40;;;31.90;99.90;;;;;;5026080;28;20387;-59
2022/08/22 11:38:46;;;;;;;8.45;3.58;;;32.20;99.90;;;;;;5027283;28;20494;-58
2022/08/22 11:41:19;;;;;;;9.13;4.10;;;32.40;99.90;;;;;;5027243;28;20395;-59
2022/08/22 11:43:53;;;;;;;7.10;3.05;;;32.80;99.90;;;;;;5026960;28;20958;-60
2022/08/22 11:46:29;;;;;;;7.30;3.20;;;33.10;99.90;;;;;;5025626;28;20417;-59
2022/08/22 11:49:25;;;;;;;8.65;3.35;;;33.30;99.90;;;;;;5024891;28;20379;-59
2022/08/22 11:52:05;;;;;;;7.05;3.03;;;33.00;99.90;;;;;;5026450;28;20504;-60
2022/08/22 11:54:58;;;;;;;7.43;3.75;;;32.70;99.90;;;;;;5025300;28;20763;-58
2022/08/22 11:57:49;;;;;;;7.93;3.70;;;32.50;99.90;;;;;;5025775;28;20536;-58
2022/08/22 12:00:38;;;;;;;8.60;3.55;;;32.40;99.90;;;;;;5023380;28;20411;-59
2022/08/22 12:03:23;;;;;;;8.10;3.20;;;32.40;99.90;;;;;;5026110;28;20406;-58
2022/08/22 12:05:55;;;;;;;8.20;3.53;;;32.60;99.90;;;;;;5025037;28;20391;-59
2022/08/22 12:08:34;;;;;;;7.40;3.10;;;32.70;99.90;;;;;;5024649;28;20433;-58
2022/08/22 12:11:24;;;;;;;8.18;3.05;;;32.70;99.90;;;;;;5027319;28;20414;-58
2022/08/22 12:13:54;;;;;;;7.50;3.00;;;31.90;99.90;;;;;;5026705;28;20453;-58
2022/08/22 12:16:53;;;;;;;12.33;3.10;;;31.70;99.90;;;;;;5027075;28;20387;-58
2022/08/22 12:19:30;;;;;;;7.30;2.80;;;32.10;99.90;;;;;;5010509;28;20486;-58
2022/08/22 12:22:34;;;;;;;6.53;2.40;;;32.40;99.90;;;;;;5028303;28;20391;-58
2022/08/22 12:25:26;;;;;;;8.98;3.10;;;32.70;99.90;;;;;;5030627;28;20503;-57
2022/08/22 12:27:57;;;;;;;10.00;2.95;;;32.70;99.90;;;;;;5030727;28;20844;-58
2022/08/22 12:30:37;;;;;;;7.60;3.23;;;32.30;99.90;;;;;;5030584;28;20384;-58
2022/08/22 12:33:22;;;;;;;8.57;2.60;;;32.30;99.90;;;;;;5030875;28;20395;-58
2022/08/22 12:36:02;;;;;;;6.70;2.77;;;32.40;99.90;;;;;;5029841;28;20391;-59
2022/08/22 12:38:58;;;;;;;7.85;2.40;;;32.20;99.90;;;;;;5029834;28;20414;-59
2022/08/22 12:41:44;;;;;;;7.60;3.37;;;32.40;99.90;;;;;;5030503;28;20413;-58
2022/08/22 12:44:22;;;;;;;7.20;2.90;;;32.30;99.90;;;;;;5030646;28;20406;-58
2022/08/22 12:47:11;;;;;;;6.80;3.25;;;32.20;99.90;;;;;;5029517;28;21178;-60
2022/08/22 12:50:02;;;;;;;7.72;2.47;;;31.80;99.90;;;;;;5029607;28;20422;-58
2022/08/22 12:52:39;;;;;;;6.82;2.65;;;31.60;99.90;;;;;;5029781;28;21091;-58
2022/08/22 12:55:14;;;;;;;6.60;2.42;;;31.50;99.90;;;;;;5030293;28;20466;-58
2022/08/22 12:57:49;;;;;;;8.00;2.60;;;31.60;99.90;;;;;;5029582;28;20478;-58
2022/08/22 13:00:29;;;;;;;6.88;3.08;;;31.70;99.90;;;;;;5030566;28;20415;-58
2022/08/22 13:02:57;;;;;;;7.60;2.22;;;31.80;99.90;;;;;;5030110;28;20430;-59
2022/08/22 13:05:26;;;;;;;6.60;2.40;;;31.90;99.90;;;;;;5029843;28;20391;-58
2022/08/22 13:07:58;;;;;;;6.60;2.60;;;32.00;99.90;;;;;;5029930;28;20382;-58
2022/08/22 13:10:29;;;;;;;8.38;2.90;;;31.80;99.90;;;;;;5029873;28;20406;-58
2022/08/22 13:12:57;;;;;;;6.65;2.83;;;31.60;99.90;;;;;;5030129;28;20502;-58
2022/08/22 13:15:28;;;;;;;7.40;3.30;;;31.40;99.90;;;;;;5029671;28;20383;-59
2022/08/22 13:17:56;;;;;;;8.00;3.13;;;31.60;99.90;;;;;;5029910;28;20422;-58
2022/08/22 13:20:30;;;;;;;6.57;2.80;;;32.10;99.90;;;;;;5029449;28;20375;-59
2022/08/22 13:22:58;;;;;;;9.27;3.50;;;32.40;99.90;;;;;;5029914;28;20391;-58
2022/08/22 13:25:27;;;;;;;7.00;3.00;;;32.00;99.90;;;;;;5029399;28;20403;-58
2022/08/22 13:27:58;;;;;;;7.70;2.90;;;31.50;99.90;;;;;;5029894;28;20395;-58
2022/08/22 13:30:41;;;;;;;7.30;3.50;;;31.60;99.90;;;;;;5029627;28;20466;-59
2022/08/22 13:33:13;;;;;;;8.73;3.10;;;31.70;99.90;;;;;;5028375;28;21550;-59
2022/08/22 13:35:43;;;;;;;8.48;3.40;;;31.80;99.90;;;;;;5029022;28;20860;-59
2022/08/22 13:38:18;;;;;;;6.47;2.90;;;31.60;99.90;;;;;;5029514;28;20387;-59
2022/08/22 13:40:48;;;;;;;8.95;3.70;;;31.60;99.90;;;;;;5028677;28;20880;-59
2022/08/22 13:43:30;;;;;;;8.23;3.33;;;31.80;99.90;;;;;;5029349;28;20479;-59
2022/08/22 13:45:59;;;;;;;8.10;3.40;;;31.70;99.90;;;;;;5028868;28;20466;-59
2022/08/22 13:48:42;;;;;;;7.68;3.47;;;31.50;99.90;;;;;;5029311;28;20395;-58
2022/08/22 13:51:24;;;;;;;7.05;3.03;;;31.40;99.90;;;;;;5029698;28;20407;-59
2022/08/22 13:54:01;;;;;;;8.07;3.70;;;31.50;99.90;;;;;;5028957;28;20876;-58
2022/08/22 13:56:49;;;;;;;9.00;3.23;;;31.80;99.90;;;;;;5029532;28;20398;-59
2022/08/22 13:59:29;;;;;;;8.50;3.30;;;31.90;99.90;;;;;;5029236;28;20475;-59
2022/08/22 14:02:17;;;;;;;8.60;3.23;;;32.00;99.90;;;;;;5029661;28;20430;-59